Aérodrome :
LOGIN :

S'inscrire | Disclaimer

   EN    FR    IT 

 










Légende :    VFR   VFR Marginal   IFR   IFR Intensif   IFR Très Intensif
Visi : 
Plafond : 
>= 8 km
>= 3000ft
5 à 8 km
1000 à 3000 ft
1500m à 5 km
500 à 1000 ft
800 à 1500m
200 à 500 ft
< 800m
< 200 ft
Symboles :   Orages  Brouillard  Fortes neiges  Fortes précipitations  Vent > 20 kt
SIGMETs :   Divers  Orages  Givrage  Turbulence  Onde Orograph.  Cendres Volcan.






- Altitude de l'aérodrome : 659 ft
- Code IATA : LGG


EBLG - Liège

DERNIER METAR :
  • 270150Z 20013KT 9999 -RADZ SCT017 BKN036 07/05 Q1011 TEMPO 4500 RA BKN014

METARs EXPIRÉS :
  • 270120Z 19013KT 8000 -RA FEW016 BKN037 07/05 Q1011 TEMPO 4500 RA BKN014
  • 270050Z 19015KT 9999 SCT020 BKN047 07/04 Q1012 TEMPO 4500 RA BKN014
  • 270020Z 19015KT 9999 FEW020 SCT041 07/04 Q1012 TEMPO 4500 RA BKN014
  • 262350Z 19012KT CAVOK 07/04 Q1012 TEMPO 4500 RA BKN014

TAF TAF EBLG
Valide du 27 à 00h jusqu'au 28 à 06h UTC


262310Z 2700/2806 20012KT 9999 BKN017
TEMPO 2703/2712 19015G25KT RA SCT006 BKN009
TEMPO 2720/2724 4500 RA SCT009 BKN014
BECMG 2722/2724 22015G25KT



MET'MAP, la Météo Aéronautique d'un coup d'oeil ! - Copyright ORBIFLY Décembre 2007 - Disclaimer

ORBIFLY MET'MAP TEAM :

Programmation & Développement : Alexandra Zaïnal
Sur une idée originale de : Baudouin d'Aumeries
Assistance à la programmation : Marc-Olivier Méhu
Soutien technique & logistique : Manuel Goepfert

Contact : metmap@orbifly.com




SOURCES & CREDITS :

   NOAA